Time;durP1;ratioP1;P1;durP2;ratioP2;P2;SDS_P1;SDS_P2;PMS_P1;PMS_P2;Temp;Humidity;BMP_temperature;BMP_pressure;BME280_temperature;BME280_humidity;BME280_pressure;Samples;Min_cycle;Max_cycle;Signal;HPM_P1;HPM_P2
2022/05/21 00:00:36;;;;;;;8.00;4.57;;;19.50;99.90;;;;;;2087713;28;20527;-75
2022/05/21 00:01:36;;;;;;;7.15;4.50;;;19.50;99.90;;;;;;2088364;28;20422;-74
2022/05/21 00:02:37;;;;;;;5.80;4.70;;;19.40;99.90;;;;;;2087590;28;20456;-74
2022/05/21 00:03:37;;;;;;;6.80;4.10;;;19.40;99.90;;;;;;2087379;28;20063;-74
2022/05/21 00:04:41;;;;;;;6.53;4.22;;;19.40;99.90;;;;;;2087452;28;20522;-74
2022/05/21 00:05:42;;;;;;;5.78;4.38;;;19.40;99.90;;;;;;2079675;28;20033;-73
2022/05/21 00:06:43;;;;;;;6.00;4.28;;;19.40;99.90;;;;;;2087517;28;20111;-74
2022/05/21 00:07:44;;;;;;;8.02;4.25;;;19.40;99.90;;;;;;2088080;28;20055;-73
2022/05/21 00:08:44;;;;;;;6.38;4.40;;;19.40;99.90;;;;;;2088185;28;20028;-74
2022/05/21 00:09:45;;;;;;;6.63;4.63;;;19.40;99.90;;;;;;2088004;28;20519;-76
2022/05/21 00:10:46;;;;;;;6.78;4.25;;;19.40;99.90;;;;;;2087814;28;20040;-73
2022/05/21 00:11:46;;;;;;;5.60;3.95;;;19.30;99.90;;;;;;2088157;28;20033;-74
2022/05/21 00:12:48;;;;;;;6.15;4.25;;;19.30;99.90;;;;;;2088217;28;20025;-75
2022/05/21 00:13:48;;;;;;;5.82;4.10;;;19.30;99.90;;;;;;2088024;28;20032;-74
2022/05/21 00:14:52;;;;;;;5.05;4.20;;;19.30;99.90;;;;;;2088022;28;20040;-75
2022/05/21 00:15:52;;;;;;;7.55;4.50;;;19.30;99.90;;;;;;2086929;28;20043;-73
2022/05/21 00:16:53;;;;;;;7.75;4.30;;;19.20;99.90;;;;;;2087497;28;20067;-74
2022/05/21 00:17:54;;;;;;;6.07;4.22;;;19.20;99.90;;;;;;2088190;28;20017;-74
2022/05/21 00:18:55;;;;;;;5.57;4.20;;;19.20;99.90;;;;;;2087994;28;20033;-74
2022/05/21 00:19:55;;;;;;;6.10;4.60;;;19.20;99.90;;;;;;2087859;28;20057;-74
2022/05/21 00:20:56;;;;;;;7.53;4.55;;;19.10;99.90;;;;;;2087957;28;20036;-75
2022/05/21 00:21:56;;;;;;;6.15;4.45;;;19.20;99.90;;;;;;2087308;28;20040;-74
2022/05/21 00:22:58;;;;;;;8.20;4.30;;;19.20;99.90;;;;;;2087319;28;20059;-74
2022/05/21 00:23:58;;;;;;;7.05;4.78;;;19.20;99.90;;;;;;2087160;28;20031;-75
2022/05/21 00:24:59;;;;;;;5.85;4.55;;;19.20;99.90;;;;;;2086946;28;20072;-74
2022/05/21 00:26:08;;;;;;;7.47;4.50;;;19.20;99.90;;;;;;2087834;28;20032;-73
2022/05/21 00:27:08;;;;;;;6.10;4.47;;;19.10;99.90;;;;;;2087836;28;20025;-75
2022/05/21 00:28:09;;;;;;;10.30;4.90;;;19.10;99.90;;;;;;2087234;28;20021;-75
2022/05/21 00:29:10;;;;;;;4.82;4.30;;;19.10;99.90;;;;;;2087229;28;20082;-76
2022/05/21 00:30:13;;;;;;;7.10;4.75;;;19.10;99.90;;;;;;2087078;28;20299;-75
2022/05/21 00:31:15;;;;;;;5.93;4.50;;;19.10;99.90;;;;;;2087541;28;20083;-75
2022/05/21 00:32:16;;;;;;;7.90;4.40;;;19.10;99.90;;;;;;2087797;28;20426;-74
2022/05/21 00:33:17;;;;;;;8.10;4.85;;;19.10;99.90;;;;;;2087894;28;20029;-75
2022/05/21 00:34:18;;;;;;;6.47;4.93;;;19.00;99.90;;;;;;2079628;28;20404;-74
2022/05/21 00:35:18;;;;;;;5.95;4.78;;;19.00;99.90;;;;;;2087845;28;20029;-74
2022/05/21 00:36:19;;;;;;;6.00;4.53;;;18.90;99.90;;;;;;2087374;28;20441;-73
2022/05/21 00:37:20;;;;;;;8.30;4.55;;;18.90;99.90;;;;;;2087369;28;20086;-74
2022/05/21 00:38:20;;;;;;;7.97;4.72;;;18.90;99.90;;;;;;2087282;28;20052;-74
2022/05/21 00:39:21;;;;;;;5.28;4.43;;;18.80;99.90;;;;;;2089241;28;20055;-74
2022/05/21 00:40:22;;;;;;;4.80;4.40;;;18.80;99.90;;;;;;2089872;28;20037;-75
2022/05/21 00:41:22;;;;;;;4.65;4.25;;;18.80;99.90;;;;;;2089712;28;20025;-75
2022/05/21 00:42:23;;;;;;;6.95;4.15;;;18.70;99.90;;;;;;2090123;28;20783;-75
2022/05/21 00:43:54;;;;;;;5.72;4.55;;;18.80;99.90;;;;;;2090765;28;20494;-74
2022/05/21 00:44:55;;;;;;;5.78;3.88;;;18.80;99.90;;;;;;2090718;28;20028;-75
2022/05/21 00:45:55;;;;;;;4.72;3.78;;;18.70;99.90;;;;;;2089874;28;20064;-75
2022/05/21 00:46:56;;;;;;;4.50;4.10;;;18.70;99.90;;;;;;2089951;28;20040;-75
2022/05/21 00:47:57;;;;;;;7.32;4.10;;;18.70;99.90;;;;;;2090736;28;20475;-73
2022/05/21 00:49:22;;;;;;;5.45;4.10;;;18.70;99.90;;;;;;2089847;28;20027;-74
2022/05/21 00:50:28;;;;;;;5.72;4.03;;;18.60;99.90;;;;;;2090155;28;20074;-74
2022/05/21 00:51:33;;;;;;;4.65;3.95;;;18.60;99.90;;;;;;2090571;28;20120;-74
2022/05/21 00:52:36;;;;;;;4.53;3.97;;;18.60;99.90;;;;;;2090516;28;20025;-73
2022/05/21 00:53:37;;;;;;;4.43;3.80;;;18.50;99.90;;;;;;2090719;28;20033;-74
2022/05/21 00:54:43;;;;;;;5.13;3.88;;;18.50;99.90;;;;;;2090570;28;20492;-75
2022/05/21 00:55:44;;;;;;;6.68;4.00;;;18.50;99.90;;;;;;2089752;28;20021;-74
2022/05/21 00:56:50;;;;;;;5.68;3.65;;;18.40;99.90;;;;;;2089865;28;20072;-75
2022/05/21 00:59:47;;;;;;;7.30;3.58;;;18.30;99.90;;;;;;2090577;28;20143;-74
2022/05/21 01:00:36;;;;;;;4.53;3.40;;;18.20;99.90;;;;;;2090209;28;20025;-74
2022/05/21 01:01:42;;;;;;;8.02;3.47;;;18.20;99.90;;;;;;2090467;28;20346;-74
2022/05/21 01:02:47;;;;;;;4.57;3.38;;;18.20;99.90;;;;;;2090647;28;20029;-74
2022/05/21 01:03:48;;;;;;;6.07;3.13;;;18.10;99.90;;;;;;2081661;28;20033;-74
2022/05/21 01:04:49;;;;;;;4.03;3.15;;;18.10;99.90;;;;;;2081682;28;20040;-74
2022/05/21 01:05:50;;;;;;;5.32;3.30;;;18.00;99.90;;;;;;2090528;28;20056;-74
2022/05/21 01:06:55;;;;;;;6.05;3.15;;;18.00;99.90;;;;;;2089925;28;20021;-74
2022/05/21 01:10:21;;;;;;;6.05;3.20;;;18.00;99.90;;;;;;2090631;28;20025;-74
2022/05/21 01:11:21;;;;;;;3.35;3.05;;;18.00;99.90;;;;;;2090518;28;20036;-74
2022/05/21 01:12:27;;;;;;;4.20;3.20;;;17.90;99.90;;;;;;2090581;28;20029;-74
2022/05/21 01:13:32;;;;;;;4.20;3.10;;;17.90;99.90;;;;;;2081818;28;20021;-75
2022/05/21 01:14:34;;;;;;;3.17;2.90;;;17.90;99.90;;;;;;2082374;28;20514;-74
2022/05/21 01:15:39;;;;;;;6.43;3.00;;;17.80;99.90;;;;;;2089820;28;20033;-74
2022/05/21 01:16:40;;;;;;;10.02;3.03;;;17.80;99.90;;;;;;2090514;28;20025;-74
2022/05/21 01:17:41;;;;;;;3.80;2.95;;;17.80;99.90;;;;;;2090590;28;20107;-75
2022/05/21 01:18:42;;;;;;;3.35;3.05;;;17.80;99.90;;;;;;2089557;28;20479;-75
2022/05/21 01:19:58;;;;;;;3.50;3.00;;;17.70;99.90;;;;;;2089838;28;20064;-75
2022/05/21 01:21:01;;;;;;;4.22;3.00;;;17.70;99.90;;;;;;2090519;28;20033;-75
2022/05/21 01:22:01;;;;;;;4.28;3.20;;;17.70;99.90;;;;;;2090421;28;20021;-74
2022/05/21 01:23:03;;;;;;;4.70;3.38;;;17.70;99.90;;;;;;2089704;28;20116;-74
2022/05/21 01:24:05;;;;;;;5.05;3.05;;;17.70;99.90;;;;;;2089670;28;20471;-75
2022/05/21 01:25:06;;;;;;;4.68;3.13;;;17.70;99.90;;;;;;2089623;28;20025;-74
2022/05/21 01:26:18;;;;;;;4.80;3.03;;;17.70;99.90;;;;;;2090242;28;20065;-74
2022/05/21 01:27:19;;;;;;;5.22;3.10;;;17.60;99.90;;;;;;2090787;28;20044;-74
2022/05/21 01:28:23;;;;;;;5.05;2.88;;;17.60;99.90;;;;;;2090602;28;20040;-73
2022/05/21 01:29:27;;;;;;;3.35;2.92;;;17.60;99.90;;;;;;2090710;28;20028;-73
2022/05/21 01:30:36;;;;;;;5.55;3.00;;;17.60;99.90;;;;;;2090357;28;20087;-73
2022/05/21 01:31:38;;;;;;;4.50;2.88;;;17.50;99.90;;;;;;2092202;28;20048;-73
2022/05/21 01:32:39;;;;;;;5.95;3.08;;;17.50;99.90;;;;;;2099961;28;20055;-73
2022/05/21 01:33:44;;;;;;;4.15;3.30;;;17.50;99.90;;;;;;2100635;28;20058;-73
2022/05/21 01:34:44;;;;;;;4.85;2.90;;;17.40;99.90;;;;;;2101166;28;20021;-73
2022/05/21 01:35:46;;;;;;;6.38;3.20;;;17.40;99.90;;;;;;2101071;28;20077;-74
2022/05/21 01:36:47;;;;;;;5.07;3.28;;;17.40;99.90;;;;;;2101308;28;20032;-73
2022/05/21 01:37:48;;;;;;;6.30;3.33;;;17.40;99.90;;;;;;2101512;28;20035;-73
2022/05/21 01:38:49;;;;;;;6.03;3.20;;;17.30;99.90;;;;;;2101786;28;20016;-73
2022/05/21 01:39:50;;;;;;;6.00;3.00;;;17.30;99.90;;;;;;2100490;28;20068;-73
2022/05/21 01:40:51;;;;;;;5.38;3.28;;;17.30;99.90;;;;;;2098643;28;20089;-74
2022/05/21 01:41:51;;;;;;;4.95;2.83;;;17.30;99.90;;;;;;2098280;28;20025;-74
2022/05/21 01:45:31;;;;;;;6.68;3.10;;;17.40;99.90;;;;;;2097555;28;20025;-74
2022/05/21 01:46:32;;;;;;;5.90;3.00;;;17.40;99.90;;;;;;2095183;28;20027;-74
2022/05/21 01:47:34;;;;;;;5.13;2.97;;;17.40;99.90;;;;;;2090997;28;20055;-74
2022/05/21 01:48:35;;;;;;;3.90;3.00;;;17.40;99.90;;;;;;2090907;28;20377;-74
2022/05/21 01:49:38;;;;;;;3.67;2.90;;;17.40;99.90;;;;;;2089813;28;20036;-74
2022/05/21 01:50:38;;;;;;;4.07;3.15;;;17.40;99.90;;;;;;2080982;28;20528;-74
2022/05/21 01:51:39;;;;;;;3.75;3.00;;;17.40;99.90;;;;;;2088167;28;20121;-74
2022/05/21 01:52:39;;;;;;;8.20;3.60;;;17.30;99.90;;;;;;2089105;28;20049;-74
2022/05/21 01:53:41;;;;;;;3.50;3.05;;;17.30;99.90;;;;;;2089117;28;20108;-73
2022/05/21 01:54:42;;;;;;;5.30;3.05;;;17.30;99.90;;;;;;2089082;28;20029;-74
2022/05/21 01:55:44;;;;;;;5.43;3.60;;;17.30;99.90;;;;;;2088988;28;20036;-73
2022/05/21 01:56:44;;;;;;;6.30;3.03;;;17.30;99.90;;;;;;2089013;28;20108;-74
2022/05/21 01:57:45;;;;;;;3.97;2.92;;;17.30;99.90;;;;;;2088958;28;20391;-74
2022/05/21 01:58:45;;;;;;;6.00;3.15;;;17.20;99.90;;;;;;2089068;28;20637;-74
2022/05/21 01:59:46;;;;;;;4.57;2.80;;;17.20;99.90;;;;;;2089060;28;20131;-74
2022/05/21 02:00:47;;;;;;;3.97;2.72;;;17.10;99.90;;;;;;2089195;28;20053;-74
2022/05/21 02:01:48;;;;;;;3.92;3.00;;;17.10;99.90;;;;;;2088355;28;20025;-74
2022/05/21 02:02:49;;;;;;;3.60;2.90;;;17.10;99.90;;;;;;2088561;28;20040;-74
2022/05/21 02:03:49;;;;;;;3.55;3.25;;;17.10;99.90;;;;;;2089030;28;20056;-74
2022/05/21 02:04:50;;;;;;;4.45;3.05;;;17.10;99.90;;;;;;2089212;28;20043;-74
2022/05/21 02:05:51;;;;;;;3.30;3.00;;;17.10;99.90;;;;;;2089007;28;20036;-72
2022/05/21 02:06:51;;;;;;;4.18;3.00;;;17.10;99.90;;;;;;2088996;28;20033;-74
2022/05/21 02:07:52;;;;;;;4.82;3.00;;;17.10;99.90;;;;;;2088157;28;20032;-73
2022/05/21 02:08:53;;;;;;;6.47;3.10;;;17.10;99.90;;;;;;2088281;28;20036;-75
2022/05/21 02:09:53;;;;;;;4.50;2.60;;;17.10;99.90;;;;;;2088064;28;20426;-73
2022/05/21 02:10:54;;;;;;;2.88;2.65;;;17.10;99.90;;;;;;2088340;28;20025;-74
2022/05/21 02:11:55;;;;;;;3.90;2.90;;;17.10;99.90;;;;;;2088714;28;20498;-73
2022/05/21 02:12:55;;;;;;;4.45;2.72;;;17.10;99.90;;;;;;2088349;28;20068;-74
2022/05/21 02:13:56;;;;;;;5.10;2.83;;;17.10;99.90;;;;;;2088564;28;20037;-75
2022/05/21 02:14:57;;;;;;;3.58;2.63;;;17.10;99.90;;;;;;2089018;28;20083;-72
2022/05/21 02:15:58;;;;;;;3.97;2.90;;;17.10;99.90;;;;;;2088270;28;20021;-74
2022/05/21 02:16:59;;;;;;;7.43;2.78;;;17.10;99.90;;;;;;2088360;28;20043;-73
2022/05/21 02:18:00;;;;;;;3.92;2.65;;;17.10;99.90;;;;;;2088155;28;20083;-75
2022/05/21 02:19:01;;;;;;;3.88;2.65;;;17.10;99.90;;;;;;2089004;28;20021;-74
2022/05/21 02:20:03;;;;;;;2.80;2.47;;;17.10;99.90;;;;;;2088809;28;20021;-74
2022/05/21 02:21:04;;;;;;;7.47;2.65;;;17.10;99.90;;;;;;2089005;28;20036;-74
2022/05/21 02:22:05;;;;;;;2.55;2.35;;;17.10;99.90;;;;;;2080353;28;20138;-74
2022/05/21 02:23:06;;;;;;;4.05;2.55;;;17.10;99.90;;;;;;2072016;28;20030;-74
2022/05/21 02:24:08;;;;;;;4.47;2.30;;;17.00;99.90;;;;;;2088380;28;20368;-75
2022/05/21 02:25:09;;;;;;;5.43;2.30;;;17.00;99.90;;;;;;2087859;28;20033;-73
2022/05/21 02:26:10;;;;;;;2.72;2.10;;;17.00;99.90;;;;;;2079987;28;20037;-74
2022/05/21 02:27:12;;;;;;;3.05;2.05;;;17.00;99.90;;;;;;2080003;28;20049;-74
2022/05/21 02:28:13;;;;;;;4.25;2.00;;;17.00;99.90;;;;;;2079847;28;20191;-74
2022/05/21 02:29:14;;;;;;;3.15;2.00;;;16.90;99.90;;;;;;2088251;28;20589;-73
2022/05/21 02:30:15;;;;;;;3.40;1.90;;;16.90;99.90;;;;;;2088658;28;20036;-74
2022/05/21 02:31:15;;;;;;;3.92;2.20;;;16.90;99.90;;;;;;2088891;28;20048;-75
2022/05/21 02:32:17;;;;;;;2.03;1.83;;;16.80;99.90;;;;;;2088773;28;20071;-75
2022/05/21 02:33:18;;;;;;;2.00;1.90;;;16.80;99.90;;;;;;2088030;28;20037;-75
2022/05/21 02:34:18;;;;;;;4.43;1.90;;;16.70;99.90;;;;;;2088451;28;20722;-75
2022/05/21 02:35:19;;;;;;;3.10;1.75;;;16.70;99.90;;;;;;2088811;28;20052;-75
2022/05/21 02:39:25;;;;;;;2.15;1.70;;;16.60;99.90;;;;;;2088770;28;20445;-75
2022/05/21 02:40:20;;;;;;;2.50;1.60;;;16.50;99.90;;;;;;2088799;28;20482;-74
2022/05/21 02:41:21;;;;;;;2.28;1.70;;;16.50;99.90;;;;;;2088743;28;20053;-74
2022/05/21 02:43:43;;;;;;;3.38;1.55;;;16.50;99.90;;;;;;2088398;28;20033;-75
2022/05/21 02:44:43;;;;;;;3.15;1.58;;;16.40;99.90;;;;;;2088248;28;20037;-74
2022/05/21 02:45:44;;;;;;;3.05;1.60;;;16.40;99.90;;;;;;2088700;28;20041;-74
2022/05/21 02:46:44;;;;;;;2.00;1.80;;;16.40;99.90;;;;;;2088735;28;20033;-74
2022/05/21 02:47:46;;;;;;;2.65;1.55;;;16.40;99.90;;;;;;2088265;28;20491;-75
2022/05/21 02:48:47;;;;;;;2.53;1.70;;;16.40;99.90;;;;;;2087824;28;20056;-74
2022/05/21 02:49:48;;;;;;;1.90;1.65;;;16.40;99.90;;;;;;2087968;28;20983;-74
2022/05/21 02:50:48;;;;;;;2.45;1.73;;;16.40;99.90;;;;;;2088582;28;20033;-73
2022/05/21 02:51:49;;;;;;;3.85;1.77;;;16.30;99.90;;;;;;2088003;28;20039;-74
2022/05/21 02:52:50;;;;;;;2.85;1.70;;;16.30;99.90;;;;;;2088061;28;20568;-74
2022/05/21 02:53:51;;;;;;;6.53;1.90;;;16.30;99.90;;;;;;2088012;28;20040;-73
2022/05/21 02:54:51;;;;;;;2.83;1.70;;;16.30;99.90;;;;;;2087941;28;20063;-73
2022/05/21 02:55:55;;;;;;;4.07;1.70;;;16.30;99.90;;;;;;2088469;28;20112;-74
2022/05/21 02:56:55;;;;;;;2.85;1.98;;;16.30;99.90;;;;;;2087771;28;20029;-74
2022/05/21 02:57:56;;;;;;;1.75;1.65;;;16.30;99.90;;;;;;2087683;28;20048;-74
2022/05/21 02:58:57;;;;;;;2.38;1.45;;;16.30;99.90;;;;;;2080272;28;20040;-74
2022/05/21 03:00:00;;;;;;;1.60;1.50;;;16.30;99.90;;;;;;2080579;28;20025;-74
2022/05/21 03:01:01;;;;;;;1.77;1.45;;;16.30;99.90;;;;;;2089662;28;20032;-74
2022/05/21 03:02:02;;;;;;;4.63;1.75;;;16.20;99.90;;;;;;2088757;28;20033;-75
2022/05/21 03:03:03;;;;;;;3.58;1.80;;;16.30;99.90;;;;;;2088328;28;20112;-74
2022/05/21 03:04:03;;;;;;;2.13;1.52;;;16.30;99.90;;;;;;2088448;28;20039;-75
2022/05/21 03:05:05;;;;;;;3.10;1.80;;;16.30;99.90;;;;;;2088469;28;20036;-75
2022/05/21 03:06:06;;;;;;;2.45;1.73;;;16.20;99.90;;;;;;2088866;28;20785;-74
2022/05/21 03:07:07;;;;;;;2.47;1.60;;;16.20;99.90;;;;;;2088028;28;20041;-74
2022/05/21 03:10:47;;;;;;;2.28;1.65;;;16.30;99.90;;;;;;2088341;28;20075;-73
2022/05/21 03:11:47;;;;;;;1.80;1.70;;;16.30;99.90;;;;;;2087917;28;20024;-74
2022/05/21 03:13:00;;;;;;;2.72;1.63;;;16.30;99.90;;;;;;2079645;28;20688;-74
2022/05/21 03:14:00;;;;;;;2.10;1.63;;;16.30;99.90;;;;;;2088030;28;20068;-75
2022/05/21 03:15:01;;;;;;;2.45;1.70;;;16.30;99.90;;;;;;2088509;28;20029;-74
2022/05/21 03:16:03;;;;;;;2.35;1.88;;;16.30;99.90;;;;;;2088527;28;20009;-74
2022/05/21 03:17:04;;;;;;;3.80;1.75;;;16.30;99.90;;;;;;2088610;28;20693;-75
2022/05/21 03:18:07;;;;;;;3.00;1.73;;;16.20;99.90;;;;;;2088291;28;20028;-75
2022/05/21 03:19:08;;;;;;;4.47;2.20;;;16.20;99.90;;;;;;2088512;28;20522;-74
2022/05/21 03:20:11;;;;;;;3.40;2.20;;;16.20;99.90;;;;;;2088276;28;20021;-74
2022/05/21 03:21:13;;;;;;;3.03;2.00;;;16.10;99.90;;;;;;2087725;28;20055;-74
2022/05/21 03:22:14;;;;;;;4.32;2.10;;;16.10;99.90;;;;;;2087879;28;20091;-75
2022/05/21 03:23:15;;;;;;;4.03;2.03;;;16.10;99.90;;;;;;2088339;28;20025;-73
2022/05/21 03:24:15;;;;;;;2.78;2.00;;;16.10;99.90;;;;;;2088403;28;20025;-73
2022/05/21 03:25:16;;;;;;;4.75;2.03;;;16.10;99.90;;;;;;2088329;28;20526;-75
2022/05/21 03:26:18;;;;;;;3.97;2.40;;;16.10;99.90;;;;;;2088483;28;20024;-74
2022/05/21 03:27:18;;;;;;;5.55;2.50;;;16.10;99.90;;;;;;2088524;28;20070;-75
2022/05/21 03:28:20;;;;;;;3.30;2.80;;;16.00;99.90;;;;;;2087609;28;20044;-77
2022/05/21 03:29:21;;;;;;;2.75;2.55;;;16.00;99.90;;;;;;2087799;28;20021;-75
2022/05/21 03:30:25;;;;;;;3.92;2.75;;;16.00;99.90;;;;;;2088288;28;20033;-74
2022/05/21 03:31:25;;;;;;;3.75;2.90;;;15.90;99.90;;;;;;2088605;28;20039;-74
2022/05/21 03:32:26;;;;;;;4.00;2.80;;;15.90;99.90;;;;;;2088506;28;20083;-76
2022/05/21 03:33:27;;;;;;;3.10;2.80;;;15.90;99.90;;;;;;2087706;28;20048;-75
2022/05/21 03:34:28;;;;;;;5.72;2.90;;;15.90;99.90;;;;;;2087724;28;20079;-75
2022/05/21 03:35:29;;;;;;;3.88;2.83;;;15.90;99.90;;;;;;2087760;28;20098;-75
2022/05/21 03:36:30;;;;;;;6.22;3.30;;;15.90;99.90;;;;;;2079648;28;20342;-75
2022/05/21 03:37:31;;;;;;;4.60;3.53;;;15.90;99.90;;;;;;2087869;28;20028;-75
2022/05/21 03:38:32;;;;;;;4.75;3.53;;;15.80;99.90;;;;;;2088153;28;20057;-73
2022/05/21 03:39:32;;;;;;;4.03;3.25;;;15.90;99.90;;;;;;2088650;28;20680;-77
2022/05/21 03:40:33;;;;;;;4.55;3.25;;;15.90;99.90;;;;;;2088441;28;20411;-74
2022/05/21 03:41:36;;;;;;;4.15;3.20;;;15.80;99.90;;;;;;2087597;28;20037;-75
2022/05/21 03:42:37;;;;;;;4.75;3.55;;;15.90;99.90;;;;;;2087859;28;20033;-73
2022/05/21 03:43:38;;;;;;;3.70;3.40;;;15.90;99.90;;;;;;2088657;28;20028;-75
2022/05/21 03:44:38;;;;;;;4.75;3.65;;;15.90;99.90;;;;;;2087915;28;20048;-74
2022/05/21 03:45:39;;;;;;;6.82;3.75;;;15.90;99.90;;;;;;2088405;28;20033;-75
2022/05/21 03:46:41;;;;;;;4.18;3.40;;;15.90;99.90;;;;;;2088236;28;20033;-74
2022/05/21 03:47:42;;;;;;;4.53;3.47;;;15.90;99.90;;;;;;2087523;28;20021;-75
2022/05/21 03:48:43;;;;;;;5.30;3.60;;;15.90;99.90;;;;;;2087381;28;20112;-74
2022/05/21 03:49:43;;;;;;;5.50;3.75;;;15.90;99.90;;;;;;2087956;28;20055;-74
2022/05/21 03:50:44;;;;;;;5.45;3.70;;;15.90;99.90;;;;;;2087245;28;20032;-74
2022/05/21 03:51:44;;;;;;;5.95;3.90;;;16.00;99.90;;;;;;2087588;28;20560;-73
2022/05/21 03:52:45;;;;;;;5.78;3.90;;;16.00;99.90;;;;;;2087485;28;20029;-74
2022/05/21 03:53:49;;;;;;;6.70;3.75;;;16.00;99.90;;;;;;2087622;28;20094;-74
2022/05/21 03:54:50;;;;;;;4.50;3.95;;;15.90;99.90;;;;;;2087442;28;20070;-75
2022/05/21 03:55:52;;;;;;;6.22;4.15;;;15.90;99.90;;;;;;2087534;28;20445;-73
2022/05/21 03:56:54;;;;;;;6.57;4.18;;;15.90;99.90;;;;;;2088322;28;20037;-73
2022/05/21 03:57:55;;;;;;;5.93;3.78;;;15.90;99.90;;;;;;2087904;28;20056;-75
2022/05/21 03:58:56;;;;;;;7.70;3.97;;;15.90;99.90;;;;;;2088006;28;20033;-75
2022/05/21 03:59:57;;;;;;;4.20;3.78;;;15.90;99.90;;;;;;2087831;28;20044;-75
2022/05/21 04:00:57;;;;;;;5.43;3.80;;;15.90;99.90;;;;;;2088127;28;20035;-76
2022/05/21 04:01:59;;;;;;;5.35;4.05;;;15.90;99.90;;;;;;2088015;28;20024;-76
2022/05/21 04:03:01;;;;;;;4.95;3.92;;;15.90;99.90;;;;;;2088149;28;20121;-74
2022/05/21 04:04:01;;;;;;;5.05;4.15;;;15.90;99.90;;;;;;2088139;28;20017;-74
2022/05/21 04:05:04;;;;;;;4.78;3.50;;;15.90;99.90;;;;;;2088186;28;20371;-74
2022/05/21 04:06:05;;;;;;;4.13;3.72;;;15.90;99.90;;;;;;2088068;28;20585;-74
2022/05/21 04:07:07;;;;;;;6.60;3.70;;;15.90;99.90;;;;;;2088488;28;20589;-75
2022/05/21 04:08:09;;;;;;;5.18;3.60;;;16.00;99.90;;;;;;2089634;28;20056;-74
2022/05/21 04:09:10;;;;;;;4.43;3.70;;;16.00;99.90;;;;;;2089828;28;20502;-74
2022/05/21 04:10:13;;;;;;;5.43;3.78;;;16.00;99.90;;;;;;2088464;28;20025;-73
2022/05/21 04:11:13;;;;;;;4.97;3.70;;;16.00;99.90;;;;;;2089300;28;20422;-72
2022/05/21 04:12:14;;;;;;;7.78;3.50;;;16.00;99.90;;;;;;2089030;28;20050;-76
2022/05/21 04:13:15;;;;;;;5.68;3.85;;;16.00;99.90;;;;;;2089207;28;20025;-73
2022/05/21 04:14:16;;;;;;;6.32;3.55;;;15.90;99.90;;;;;;2080241;28;20113;-75
2022/05/21 04:15:16;;;;;;;4.75;3.65;;;16.00;99.90;;;;;;2080707;28;20028;-74
2022/05/21 04:16:17;;;;;;;5.20;3.42;;;16.10;99.90;;;;;;2089070;28;20641;-74
2022/05/21 04:17:17;;;;;;;5.88;3.60;;;16.10;99.90;;;;;;2089301;28;20075;-76
2022/05/21 04:18:19;;;;;;;6.20;4.00;;;16.10;99.90;;;;;;2089398;28;20039;-75
2022/05/21 04:19:20;;;;;;;5.07;3.60;;;16.20;99.90;;;;;;2089090;28;20037;-74
2022/05/21 04:20:23;;;;;;;3.92;3.50;;;16.30;99.90;;;;;;2088923;28;20879;-74
2022/05/21 04:21:26;;;;;;;6.53;3.50;;;16.30;99.90;;;;;;2089304;28;20029;-74
2022/05/21 04:22:27;;;;;;;4.13;3.70;;;16.30;99.90;;;;;;2089711;28;20084;-74
2022/05/21 04:23:27;;;;;;;5.38;3.47;;;16.30;99.90;;;;;;2089833;28;20597;-75
2022/05/21 04:24:28;;;;;;;6.25;3.60;;;16.30;99.90;;;;;;2089686;28;20067;-76
2022/05/21 04:25:29;;;;;;;6.75;3.35;;;16.30;99.90;;;;;;2089528;28;20036;-76
2022/05/21 04:26:30;;;;;;;6.25;3.72;;;16.30;99.90;;;;;;2089347;28;20128;-76
2022/05/21 04:27:30;;;;;;;4.25;3.60;;;16.20;99.90;;;;;;2090014;28;20037;-74
2022/05/21 04:28:31;;;;;;;4.38;3.70;;;16.20;99.90;;;;;;2088701;28;20040;-75
2022/05/21 04:29:31;;;;;;;3.75;3.45;;;16.10;99.90;;;;;;2081022;28;20133;-74
2022/05/21 04:30:35;;;;;;;10.65;3.45;;;16.10;99.90;;;;;;2080906;28;20033;-74
2022/05/21 04:31:37;;;;;;;3.95;3.53;;;16.10;99.90;;;;;;2089553;28;20037;-75
2022/05/21 04:32:37;;;;;;;6.13;4.10;;;16.10;99.90;;;;;;2089607;28;20029;-75
2022/05/21 04:33:38;;;;;;;5.38;3.67;;;16.00;99.90;;;;;;2090135;28;20032;-74
2022/05/21 04:34:39;;;;;;;5.07;3.90;;;16.00;99.90;;;;;;2090397;28;20021;-75
2022/05/21 04:36:58;;;;;;;5.63;4.13;;;16.00;99.90;;;;;;2090079;28;20033;-75
2022/05/21 04:38:00;;;;;;;6.75;4.60;;;15.90;99.90;;;;;;2089640;28;20033;-75
2022/05/21 04:39:03;;;;;;;7.00;4.05;;;15.90;99.90;;;;;;2090054;28;20032;-75
2022/05/21 04:40:07;;;;;;;5.88;4.40;;;15.90;99.90;;;;;;2089308;28;20041;-75
2022/05/21 04:41:07;;;;;;;8.07;4.65;;;15.80;99.90;;;;;;2089111;28;20032;-76
2022/05/21 04:42:08;;;;;;;5.85;4.50;;;15.80;99.90;;;;;;2088948;28;20025;-76
2022/05/21 04:43:09;;;;;;;6.28;4.60;;;15.80;99.90;;;;;;2088655;28;20033;-77
2022/05/21 04:44:10;;;;;;;5.43;4.53;;;15.80;99.90;;;;;;2089877;28;20426;-75
2022/05/21 04:45:11;;;;;;;5.22;4.53;;;15.80;99.90;;;;;;2088359;28;20074;-75
2022/05/21 04:46:14;;;;;;;6.28;4.63;;;15.80;99.90;;;;;;2087532;28;20032;-76
2022/05/21 04:47:15;;;;;;;6.45;4.82;;;15.80;99.90;;;;;;2087261;28;20112;-75
2022/05/21 04:48:15;;;;;;;5.45;4.60;;;15.80;99.90;;;;;;2087213;28;20025;-74
2022/05/21 04:49:16;;;;;;;6.80;4.80;;;15.80;99.90;;;;;;2087443;28;20039;-76
2022/05/21 04:50:17;;;;;;;7.03;4.65;;;15.80;99.90;;;;;;2087121;28;20039;-74
2022/05/21 04:51:18;;;;;;;6.78;5.00;;;15.80;99.90;;;;;;2087265;28;20036;-74
2022/05/21 04:52:18;;;;;;;7.88;4.70;;;15.80;99.90;;;;;;2087872;28;20029;-73
2022/05/21 04:53:19;;;;;;;5.82;4.93;;;15.80;99.90;;;;;;2087836;28;20112;-74
2022/05/21 04:54:19;;;;;;;6.45;4.72;;;15.70;99.90;;;;;;2087920;28;20044;-74
2022/05/21 04:55:20;;;;;;;9.98;4.80;;;15.70;99.90;;;;;;2087879;28;20036;-75
2022/05/21 04:56:21;;;;;;;6.03;4.40;;;15.70;99.90;;;;;;2087976;28;20441;-74
2022/05/21 04:57:21;;;;;;;5.18;4.65;;;15.70;99.90;;;;;;2087966;28;20036;-74
2022/05/21 04:58:22;;;;;;;9.40;4.93;;;15.60;99.90;;;;;;2087670;28;20021;-74
2022/05/21 04:59:23;;;;;;;5.55;4.68;;;15.70;99.90;;;;;;2087799;28;20029;-74
2022/05/21 05:00:24;;;;;;;5.45;4.68;;;15.60;99.90;;;;;;2087716;28;20033;-74
2022/05/21 05:01:25;;;;;;;5.53;4.85;;;15.60;99.90;;;;;;2087280;28;20033;-74
2022/05/21 05:02:27;;;;;;;6.30;5.03;;;15.70;99.90;;;;;;2087355;28;20037;-74
2022/05/21 05:03:28;;;;;;;7.15;5.20;;;15.60;99.90;;;;;;2088001;28;20446;-75
2022/05/21 05:04:28;;;;;;;7.95;4.80;;;15.60;99.90;;;;;;2087970;28;20037;-75
2022/05/21 05:05:29;;;;;;;6.78;4.78;;;15.60;99.90;;;;;;2087903;28;20111;-75
2022/05/21 05:06:30;;;;;;;7.18;5.07;;;15.60;99.90;;;;;;2087789;28;20025;-75
2022/05/21 05:07:31;;;;;;;6.60;4.80;;;15.50;99.90;;;;;;2078912;28;20057;-75
2022/05/21 05:08:32;;;;;;;7.43;4.90;;;15.50;99.90;;;;;;2078907;28;20396;-76
2022/05/21 05:09:41;;;;;;;5.68;4.88;;;15.50;99.90;;;;;;2087034;28;20045;-75
2022/05/21 05:10:43;;;;;;;5.97;4.68;;;15.40;99.90;;;;;;2087157;28;20040;-73
2022/05/21 05:11:44;;;;;;;6.93;4.65;;;15.40;99.90;;;;;;2087654;28;20481;-73
2022/05/21 05:12:44;;;;;;;5.63;4.53;;;15.40;99.90;;;;;;2088042;28;20037;-74
2022/05/21 05:13:45;;;;;;;5.78;4.20;;;15.50;99.90;;;;;;2087260;28;20064;-73
2022/05/21 05:14:45;;;;;;;6.78;4.80;;;15.50;99.90;;;;;;2078966;28;20125;-74
2022/05/21 05:15:46;;;;;;;6.85;4.38;;;15.50;99.90;;;;;;2087267;28;20450;-74
2022/05/21 05:16:47;;;;;;;5.53;4.20;;;15.40;99.90;;;;;;2087687;28;20033;-73
2022/05/21 05:17:48;;;;;;;5.95;4.50;;;15.50;99.90;;;;;;2087514;28;20056;-73
2022/05/21 05:18:48;;;;;;;6.88;4.93;;;15.40;99.90;;;;;;2087224;28;20031;-73
2022/05/21 05:19:49;;;;;;;8.13;4.45;;;15.40;99.90;;;;;;2087190;28;20531;-73
2022/05/21 05:20:50;;;;;;;5.38;4.40;;;15.40;99.90;;;;;;2087877;28;20032;-73
2022/05/21 05:21:51;;;;;;;6.72;4.55;;;15.40;99.90;;;;;;2087194;28;20115;-74
2022/05/21 05:22:51;;;;;;;8.68;4.03;;;15.40;99.90;;;;;;2079008;28;20029;-73
2022/05/21 05:23:52;;;;;;;6.53;4.60;;;15.40;99.90;;;;;;2087288;28;20037;-72
2022/05/21 05:24:52;;;;;;;5.78;4.30;;;15.40;99.90;;;;;;2087930;28;20067;-73
2022/05/21 05:25:54;;;;;;;6.05;4.70;;;15.40;99.90;;;;;;2087874;28;20468;-74
2022/05/21 05:26:54;;;;;;;5.88;4.28;;;15.30;99.90;;;;;;2089485;28;20021;-73
2022/05/21 05:27:55;;;;;;;7.30;4.18;;;15.40;99.90;;;;;;2089726;28;20036;-74
2022/05/21 05:28:56;;;;;;;5.78;4.05;;;15.30;99.90;;;;;;2089590;28;20056;-72
2022/05/21 05:29:56;;;;;;;8.48;4.45;;;15.30;99.90;;;;;;2088456;28;20084;-73
2022/05/21 05:30:57;;;;;;;5.60;4.10;;;15.30;99.90;;;;;;2088761;28;20122;-74
2022/05/21 05:31:58;;;;;;;5.30;4.20;;;15.40;99.90;;;;;;2089354;28;20021;-72
2022/05/21 05:32:59;;;;;;;5.47;4.38;;;15.40;99.90;;;;;;2089391;28;20025;-72
2022/05/21 05:33:59;;;;;;;5.72;4.20;;;15.30;99.90;;;;;;2089188;28;20112;-73
2022/05/21 05:35:00;;;;;;;8.43;4.57;;;15.40;99.90;;;;;;2089118;28;20391;-72